createdAt,value
2023-04-16T00:02:08.493Z,18.31
2023-04-16T00:05:10.749Z,18.25
2023-04-16T00:08:12.975Z,18.31
2023-04-16T00:11:15.735Z,18.31
2023-04-16T00:14:17.891Z,18.31
2023-04-16T00:17:20.008Z,18.38
2023-04-16T00:20:22.075Z,18.25
2023-04-16T00:23:25.376Z,18.31
2023-04-16T00:26:27.477Z,18.31
2023-04-16T00:29:31.005Z,18.25
2023-04-16T00:32:33.118Z,18.25
2023-04-16T00:35:35.493Z,18.25
2023-04-16T00:38:37.654Z,18.25
2023-04-16T00:41:39.786Z,18.25
2023-04-16T00:44:41.899Z,18.19
2023-04-16T00:47:45.131Z,18.25
2023-04-16T00:50:47.361Z,18.19
2023-04-16T00:53:50.367Z,18.19
2023-04-16T00:56:52.616Z,18.19
2023-04-16T00:59:55.547Z,18.19
2023-04-16T01:02:59.987Z,18.19
2023-04-16T01:06:02.457Z,18.19
2023-04-16T01:09:05.305Z,18.19
2023-04-16T01:12:07.358Z,18.19
2023-04-16T01:15:11.254Z,18.13
2023-04-16T01:18:16.424Z,18.13
2023-04-16T01:21:18.483Z,18.13
2023-04-16T01:24:20.731Z,18.13
2023-04-16T01:27:22.805Z,18.13
2023-04-16T01:30:25.182Z,18.06
2023-04-16T01:33:27.299Z,18.13
2023-04-16T01:36:29.324Z,18.06
2023-04-16T01:39:31.876Z,18.06
2023-04-16T01:42:33.960Z,18.06
2023-04-16T01:45:36.079Z,18.06
2023-04-16T01:48:38.185Z,18.06
2023-04-16T01:51:40.477Z,18.06
2023-04-16T01:54:42.654Z,18.00
2023-04-16T01:57:44.700Z,18.06
2023-04-16T02:00:46.863Z,18.00
2023-04-16T02:03:49.408Z,18.00
2023-04-16T02:06:51.582Z,18.00
2023-04-16T02:09:53.949Z,18.00
2023-04-16T02:12:56.492Z,18.00
2023-04-16T02:15:58.683Z,18.00
2023-04-16T02:19:00.865Z,18.00
2023-04-16T02:22:03.243Z,17.94
2023-04-16T02:25:05.996Z,18.00
2023-04-16T02:28:11.444Z,17.94
2023-04-16T02:31:13.571Z,17.94
2023-04-16T02:34:16.033Z,17.94
2023-04-16T02:37:18.120Z,17.94
2023-04-16T02:40:20.184Z,17.94
2023-04-16T02:43:22.207Z,17.94
2023-04-16T02:46:24.431Z,17.94
2023-04-16T02:49:26.596Z,17.94
2023-04-16T02:52:28.653Z,17.94
2023-04-16T02:55:30.910Z,17.88
2023-04-16T02:58:32.976Z,17.88
2023-04-16T03:01:35.092Z,17.88
2023-04-16T03:04:37.374Z,17.88
2023-04-16T03:07:40.702Z,17.88
2023-04-16T03:10:42.756Z,17.88
2023-04-16T03:13:44.944Z,17.88
2023-04-16T03:16:46.978Z,17.88
2023-04-16T03:19:50.758Z,17.88
2023-04-16T03:22:52.910Z,17.88
2023-04-16T03:25:55.010Z,17.88
2023-04-16T03:28:57.101Z,17.81
2023-04-16T03:31:59.210Z,17.81
2023-04-16T03:35:01.297Z,17.81
2023-04-16T03:38:03.449Z,17.81
2023-04-16T03:41:05.623Z,17.81
2023-04-16T03:44:07.699Z,17.81
2023-04-16T03:47:09.744Z,17.81
2023-04-16T03:50:11.870Z,17.81
2023-04-16T03:53:14.254Z,17.75
2023-04-16T03:56:16.327Z,17.75
2023-04-16T03:59:18.821Z,17.75
2023-04-16T04:02:20.961Z,17.75
2023-04-16T04:05:23.142Z,17.75
2023-04-16T04:08:26.031Z,17.75
2023-04-16T04:11:28.122Z,17.75
2023-04-16T04:14:30.227Z,17.75
2023-04-16T04:17:32.318Z,17.75
2023-04-16T04:20:34.440Z,17.75
2023-04-16T04:23:36.918Z,17.75
2023-04-16T04:26:38.998Z,17.69
2023-04-16T04:29:41.175Z,17.69
2023-04-16T04:32:43.303Z,17.69
2023-04-16T04:35:45.508Z,17.69
2023-04-16T04:38:47.579Z,17.69
2023-04-16T04:41:49.694Z,17.69
2023-04-16T04:44:51.866Z,17.69
2023-04-16T04:47:54.080Z,17.69
2023-04-16T04:50:56.204Z,17.69
2023-04-16T04:53:58.441Z,17.69
2023-04-16T04:57:01.192Z,17.69
2023-04-16T05:00:04.375Z,17.69
2023-04-16T05:03:11.675Z,17.63
2023-04-16T05:06:13.880Z,17.63
2023-04-16T05:09:16.031Z,17.63
2023-04-16T05:12:18.095Z,17.63
2023-04-16T05:15:20.272Z,17.63
2023-04-16T05:18:22.317Z,17.63
2023-04-16T05:21:26.290Z,17.75
2023-04-16T05:24:28.638Z,17.75
2023-04-16T05:27:30.667Z,17.75
2023-04-16T05:30:32.779Z,17.75
2023-04-16T05:33:34.973Z,17.75
2023-04-16T05:36:37.206Z,17.75
2023-04-16T05:39:39.277Z,17.81
2023-04-16T05:42:41.490Z,17.69
2023-04-16T05:45:43.692Z,17.63
2023-04-16T05:48:46.079Z,17.63
2023-04-16T05:51:50.758Z,17.69
2023-04-16T05:54:53.106Z,17.69
2023-04-16T05:57:55.237Z,17.81
2023-04-16T06:00:57.380Z,17.88
2023-04-16T06:03:59.683Z,17.88
2023-04-16T06:07:02.010Z,18.00
2023-04-16T06:10:04.410Z,18.06
2023-04-16T06:13:06.576Z,18.06
2023-04-16T06:16:09.003Z,18.19
2023-04-16T06:19:11.408Z,18.31
2023-04-16T06:22:13.711Z,18.31
2023-04-16T06:25:18.029Z,18.31
2023-04-16T06:28:20.625Z,18.44
2023-04-16T06:31:22.757Z,18.63
2023-04-16T06:34:25.484Z,18.69
2023-04-16T06:37:27.520Z,18.69
2023-04-16T06:40:29.586Z,18.75
2023-04-16T06:43:33.484Z,18.81
2023-04-16T06:46:35.690Z,18.88
2023-04-16T06:49:39.424Z,18.94
2023-04-16T06:52:41.484Z,19.00
2023-04-16T06:55:43.589Z,19.00
2023-04-16T06:58:45.890Z,19.13
2023-04-16T07:01:48.103Z,19.13
2023-04-16T07:04:52.253Z,19.25
2023-04-16T07:07:56.182Z,19.44
2023-04-16T07:10:58.434Z,19.63
2023-04-16T07:14:00.558Z,19.75
2023-04-16T07:17:02.641Z,19.94
2023-04-16T07:20:05.353Z,19.88
2023-04-16T07:23:07.546Z,19.75
2023-04-16T07:26:10.552Z,19.94
2023-04-16T07:29:12.649Z,20.00
2023-04-16T07:32:15.579Z,20.06
2023-04-16T07:35:18.122Z,20.13
2023-04-16T07:38:20.593Z,20.06
2023-04-16T07:41:22.738Z,20.06
2023-04-16T07:44:24.817Z,20.06
2023-04-16T07:47:27.129Z,20.06
2023-04-16T07:50:29.249Z,20.06
2023-04-16T07:53:31.529Z,20.00
2023-04-16T07:56:33.562Z,20.13
2023-04-16T07:59:35.875Z,20.06
2023-04-16T08:02:38.414Z,20.13
2023-04-16T08:05:40.785Z,20.06
2023-04-16T08:08:42.998Z,20.00
2023-04-16T08:11:45.098Z,20.13
2023-04-16T08:14:47.935Z,20.38
2023-04-16T08:17:50.095Z,20.38
2023-04-16T08:20:52.213Z,20.38
2023-04-16T08:23:54.796Z,20.44
2023-04-16T08:27:02.463Z,20.44
2023-04-16T08:30:13.446Z,20.44
2023-04-16T08:33:15.840Z,20.44
2023-04-16T08:36:18.073Z,20.50
2023-04-16T08:39:20.304Z,20.44
2023-04-16T08:42:40.844Z,20.44
2023-04-16T08:45:43.669Z,20.44
2023-04-16T08:48:51.223Z,20.44
2023-04-16T08:51:55.024Z,20.38
2023-04-16T08:55:12.610Z,20.31
2023-04-16T08:58:22.693Z,20.38
2023-04-16T09:01:26.807Z,20.50
2023-04-16T09:04:29.711Z,20.50
2023-04-16T09:07:33.657Z,20.63
2023-04-16T09:10:35.797Z,20.75
2023-04-16T09:13:38.493Z,20.69
2023-04-16T09:16:41.591Z,20.63
2023-04-16T09:19:44.186Z,20.63
2023-04-16T09:22:46.526Z,20.56
2023-04-16T09:25:48.632Z,20.50
2023-04-16T09:28:53.587Z,20.56
2023-04-16T09:32:07.293Z,20.44
2023-04-16T09:35:09.500Z,20.44
2023-04-16T09:38:11.569Z,20.44
2023-04-16T09:41:16.571Z,20.38
2023-04-16T09:44:18.694Z,20.25
2023-04-16T09:47:21.482Z,20.31
2023-04-16T09:50:26.894Z,20.25
2023-04-16T09:53:30.649Z,20.25
2023-04-16T09:56:32.706Z,20.25
2023-04-16T09:59:36.398Z,20.19
2023-04-16T10:02:42.384Z,20.19
2023-04-16T10:05:45.390Z,20.19
2023-04-16T10:08:56.979Z,20.13
2023-04-16T10:11:59.595Z,20.06
2023-04-16T10:15:02.295Z,20.00
2023-04-16T10:18:05.292Z,20.00
2023-04-16T10:21:08.060Z,19.94
2023-04-16T10:24:10.392Z,19.94
2023-04-16T10:27:12.508Z,19.81
2023-04-16T10:30:17.045Z,19.81
2023-04-16T10:33:24.225Z,19.81
2023-04-16T10:36:26.693Z,19.75
2023-04-16T10:39:29.612Z,19.69
2023-04-16T10:42:32.036Z,19.63
2023-04-16T10:45:38.617Z,19.69
2023-04-16T10:48:49.783Z,19.69
2023-04-16T10:51:55.284Z,19.63
2023-04-16T10:55:00.865Z,19.63
2023-04-16T10:58:03.001Z,19.50
2023-04-16T11:01:32.880Z,19.50
2023-04-16T11:04:37.615Z,19.50
2023-04-16T11:07:49.701Z,19.50
2023-04-16T11:10:52.448Z,19.44
2023-04-16T11:13:56.934Z,19.50
2023-04-16T11:17:02.286Z,19.44
2023-04-16T11:20:17.377Z,19.44
2023-04-16T11:23:22.423Z,19.38
2023-04-16T11:26:29.170Z,19.38
2023-04-16T11:29:31.272Z,19.31
2023-04-16T11:32:34.523Z,19.31
2023-04-16T11:35:37.182Z,19.31
2023-04-16T11:38:41.186Z,19.31
2023-04-16T11:41:44.930Z,19.31
2023-04-16T11:44:46.996Z,19.25
2023-04-16T11:47:53.358Z,19.25
2023-04-16T11:50:59.400Z,19.25
2023-04-16T11:54:01.959Z,19.25
2023-04-16T11:57:06.947Z,19.19
2023-04-16T12:00:13.820Z,19.19
2023-04-16T12:03:16.471Z,19.19
2023-04-16T12:06:18.711Z,19.19
2023-04-16T12:09:27.907Z,19.19
2023-04-16T12:12:36.638Z,19.19
2023-04-16T12:15:58.074Z,19.13
2023-04-16T12:19:10.051Z,19.13
2023-04-16T12:22:20.675Z,19.13
2023-04-16T12:25:27.294Z,19.06
2023-04-16T12:28:50.195Z,19.06
2023-04-16T12:32:13.027Z,19.06
2023-04-16T12:36:01.727Z,19.00
2023-04-16T12:39:23.638Z,19.00
2023-04-16T12:42:56.709Z,19.00
2023-04-16T12:49:58.381Z,18.94
2023-04-16T12:53:59.229Z,18.88
2023-04-16T13:01:33.354Z,18.88
2023-04-16T13:08:02.314Z,18.88
2023-04-16T13:11:04.796Z,18.88
2023-04-16T13:14:06.929Z,18.88
2023-04-16T13:17:09.133Z,18.81
2023-04-16T13:20:11.548Z,18.81
2023-04-16T13:23:13.962Z,18.88
2023-04-16T13:26:17.507Z,18.81
2023-04-16T13:29:23.174Z,18.81
2023-04-16T13:32:25.440Z,18.75
2023-04-16T13:35:27.655Z,18.81
2023-04-16T13:38:29.644Z,18.75
2023-04-16T13:41:31.823Z,18.75
2023-04-16T13:44:33.933Z,18.75
2023-04-16T13:47:36.741Z,18.75
2023-04-16T13:50:38.797Z,18.75
2023-04-16T13:53:41.101Z,18.75
2023-04-16T13:56:43.267Z,18.69
2023-04-16T13:59:45.536Z,18.69
2023-04-16T14:02:48.706Z,18.69
2023-04-16T14:05:51.024Z,18.69
2023-04-16T14:08:53.089Z,18.69
2023-04-16T14:11:55.814Z,18.69
2023-04-16T14:14:58.279Z,18.75
2023-04-16T14:18:01.371Z,18.75
2023-04-16T14:21:03.544Z,18.75
2023-04-16T14:24:06.097Z,18.81
2023-04-16T14:27:08.712Z,18.75
2023-04-16T14:30:11.101Z,18.75
2023-04-16T14:33:13.178Z,18.75
2023-04-16T14:36:15.746Z,18.69
2023-04-16T14:39:18.349Z,18.69
2023-04-16T14:42:20.381Z,18.75
2023-04-16T14:45:23.024Z,18.75
2023-04-16T14:48:25.222Z,18.69
2023-04-16T14:51:27.509Z,18.69
2023-04-16T14:54:29.664Z,18.69
2023-04-16T14:57:33.285Z,18.63
2023-04-16T15:00:35.764Z,18.69
2023-04-16T15:03:37.980Z,18.63
2023-04-16T15:06:40.421Z,18.63
2023-04-16T15:09:42.536Z,18.69
2023-04-16T15:12:44.543Z,18.75
2023-04-16T15:15:46.614Z,18.69
2023-04-16T15:18:50.309Z,18.69
2023-04-16T15:21:52.495Z,18.75
2023-04-16T15:24:54.505Z,18.75
2023-04-16T15:27:56.535Z,18.88
2023-04-16T15:31:00.820Z,18.94
2023-04-16T15:34:02.841Z,19.00
2023-04-16T15:37:04.871Z,19.06
2023-04-16T15:40:10.711Z,19.13
2023-04-16T15:43:12.882Z,19.13
2023-04-16T15:46:15.088Z,19.19
2023-04-16T15:49:17.176Z,19.13
2023-04-16T15:52:19.978Z,19.13
2023-04-16T15:55:22.083Z,19.13
2023-04-16T15:58:24.177Z,19.19
2023-04-16T16:01:26.549Z,19.19
2023-04-16T16:04:28.709Z,19.25
2023-04-16T16:07:31.099Z,19.19
2023-04-16T16:10:33.898Z,19.19
2023-04-16T16:13:37.028Z,19.25
2023-04-16T16:16:39.793Z,19.25
2023-04-16T16:19:42.005Z,19.19
2023-04-16T16:22:46.325Z,19.19
2023-04-16T16:25:48.351Z,19.13
2023-04-16T16:28:50.426Z,19.06
2023-04-16T16:31:52.539Z,19.06
2023-04-16T16:34:54.690Z,19.00
2023-04-16T16:37:57.207Z,19.00
2023-04-16T16:40:59.371Z,18.94
2023-04-16T16:44:01.476Z,18.94
2023-04-16T16:47:03.639Z,18.88
2023-04-16T16:50:06.488Z,18.81
2023-04-16T16:53:08.560Z,18.88
2023-04-16T16:56:10.654Z,18.81
2023-04-16T16:59:13.080Z,18.81
2023-04-16T17:02:17.024Z,18.75
2023-04-16T17:05:19.803Z,18.75
2023-04-16T17:08:21.969Z,18.75
2023-04-16T17:11:26.902Z,18.75
2023-04-16T17:14:28.963Z,18.75
2023-04-16T17:17:32.533Z,18.69
2023-04-16T17:20:34.644Z,18.69
2023-04-16T17:23:36.659Z,18.63
2023-04-16T17:26:40.860Z,18.69
2023-04-16T17:29:42.974Z,18.69
2023-04-16T17:32:45.029Z,18.63
2023-04-16T17:35:47.058Z,18.63
2023-04-16T17:38:50.546Z,18.63
2023-04-16T17:41:54.691Z,18.56
2023-04-16T17:44:56.732Z,18.63
2023-04-16T17:47:58.784Z,18.63
2023-04-16T17:51:08.173Z,18.63
2023-04-16T17:54:10.635Z,18.63
2023-04-16T17:57:12.928Z,18.63
2023-04-16T18:00:16.019Z,18.63
2023-04-16T18:03:19.392Z,18.63
2023-04-16T18:06:23.416Z,18.63
2023-04-16T18:09:26.176Z,18.56
2023-04-16T18:12:28.237Z,18.50
2023-04-16T18:15:30.732Z,18.50
2023-04-16T18:18:32.778Z,18.44
2023-04-16T18:21:35.656Z,18.44
2023-04-16T18:24:37.933Z,18.38
2023-04-16T18:27:39.979Z,18.31
2023-04-16T18:30:42.698Z,18.31
2023-04-16T18:33:56.348Z,18.31
2023-04-16T18:36:59.833Z,18.25
2023-04-16T18:40:02.034Z,18.25
2023-04-16T18:43:04.802Z,18.25
2023-04-16T18:46:06.823Z,18.25
2023-04-16T18:49:09.195Z,18.25
2023-04-16T18:52:11.468Z,18.19
2023-04-16T18:55:13.446Z,18.19
2023-04-16T18:58:16.176Z,18.19
2023-04-16T19:01:18.493Z,18.13
2023-04-16T19:04:20.816Z,18.13
2023-04-16T19:07:22.931Z,18.19
2023-04-16T19:10:24.975Z,18.13
2023-04-16T19:13:27.137Z,18.13
2023-04-16T19:16:29.637Z,18.13
2023-04-16T19:19:31.759Z,18.13
2023-04-16T19:22:33.851Z,18.13
2023-04-16T19:25:36.513Z,18.13
2023-04-16T19:28:38.777Z,18.06
2023-04-16T19:31:40.951Z,18.06
2023-04-16T19:34:43.056Z,18.06
2023-04-16T19:37:45.095Z,18.06
2023-04-16T19:40:48.782Z,18.06
2023-04-16T19:43:50.838Z,18.06
2023-04-16T19:46:53.104Z,18.00
2023-04-16T19:49:55.221Z,18.00
2023-04-16T19:52:57.303Z,18.00
2023-04-16T19:55:59.478Z,18.00
2023-04-16T19:59:02.381Z,18.00
2023-04-16T20:02:04.443Z,17.94
2023-04-16T20:05:06.820Z,18.00
2023-04-16T20:08:08.879Z,17.94
2023-04-16T20:11:12.087Z,17.94
2023-04-16T20:14:14.279Z,17.94
2023-04-16T20:17:17.735Z,17.94
2023-04-16T20:20:19.904Z,17.94
2023-04-16T20:23:21.985Z,17.88
2023-04-16T20:26:25.114Z,17.88
2023-04-16T20:29:27.369Z,17.88
2023-04-16T20:32:29.992Z,17.88
2023-04-16T20:35:32.387Z,17.88
2023-04-16T20:38:35.601Z,17.88
2023-04-16T20:41:44.713Z,17.88
2023-04-16T20:44:50.742Z,17.81
2023-04-16T20:47:52.819Z,17.88
2023-04-16T20:51:02.825Z,17.88
2023-04-16T20:54:04.851Z,17.88
2023-04-16T20:57:07.267Z,17.81
2023-04-16T21:00:11.769Z,17.81
2023-04-16T21:03:13.925Z,17.81
2023-04-16T21:06:17.590Z,17.81
2023-04-16T21:09:20.421Z,17.81
2023-04-16T21:12:22.489Z,17.75
2023-04-16T21:15:24.605Z,17.81
2023-04-16T21:18:26.663Z,17.75
2023-04-16T21:21:28.735Z,17.75
2023-04-16T21:24:32.115Z,17.75
2023-04-16T21:27:34.214Z,17.75
2023-04-16T21:30:37.176Z,17.75
2023-04-16T21:33:39.340Z,17.75
2023-04-16T21:36:41.364Z,17.75
2023-04-16T21:39:43.398Z,17.69
2023-04-16T21:42:45.475Z,17.69
2023-04-16T21:45:47.592Z,17.69
2023-04-16T21:48:49.905Z,17.69
2023-04-16T21:51:59.203Z,17.75
2023-04-16T21:55:01.289Z,17.69
2023-04-16T21:58:03.981Z,17.69
2023-04-16T22:01:07.259Z,17.69
2023-04-16T22:04:12.130Z,17.69
2023-04-16T22:07:16.663Z,17.63
2023-04-16T22:10:19.252Z,17.69
2023-04-16T22:13:21.573Z,17.63
2023-04-16T22:16:26.659Z,17.63
2023-04-16T22:19:29.042Z,17.63
2023-04-16T22:22:31.076Z,17.56
2023-04-16T22:25:33.414Z,17.56
2023-04-16T22:28:35.545Z,17.56
2023-04-16T22:31:37.694Z,17.56
2023-04-16T22:34:39.747Z,17.56
2023-04-16T22:37:41.772Z,17.56
2023-04-16T22:40:46.609Z,17.56
2023-04-16T22:43:50.027Z,17.56
2023-04-16T22:46:53.202Z,17.56
2023-04-16T22:49:55.193Z,17.56
2023-04-16T22:52:57.211Z,17.56
2023-04-16T22:55:59.306Z,17.56
2023-04-16T22:59:01.341Z,17.50
2023-04-16T23:02:03.467Z,17.50
2023-04-16T23:05:05.859Z,17.50
2023-04-16T23:08:07.916Z,17.50
2023-04-16T23:11:09.933Z,17.50
2023-04-16T23:17:15.971Z,17.50
2023-04-16T23:20:18.102Z,17.44
2023-04-16T23:23:20.426Z,17.44
2023-04-16T23:26:22.480Z,17.50
2023-04-16T23:29:24.625Z,17.44
2023-04-16T23:32:27.133Z,17.44
2023-04-16T23:35:29.318Z,17.44
2023-04-16T23:38:31.423Z,17.44
2023-04-16T23:41:33.432Z,17.44
2023-04-16T23:44:35.594Z,17.38
2023-04-16T23:47:37.849Z,17.44
2023-04-16T23:50:39.845Z,17.38
2023-04-16T23:53:41.843Z,17.38
2023-04-16T23:56:43.829Z,17.38
2023-04-16T23:59:45.924Z,17.38
